Anori, Brazil
Current Conditions -  °F | °C
As of 8:00 AM on Friday 24 Oct 2014 (Local Time) from SBEG Reporting Station
Scattered Clouds Scattered Clouds  
Wind Chill: 81°   Ceiling: Unl
Heat Index: 85°   Visibility: 6mi
Dew Point: 72°   Wind: 5mph
Humidity: 74%   Direction: 290°WNW
Pressure: 29.91"   Gusts: NA
Location:  3.77°S, 61.64°W
Report Text: SBEG 241200Z 29004KT 9999 SCT007 27/22 Q1013
Loading
Personal Weather Stations






























Interactive Weather Map
Tropical Storm Tracking
New forecast layout! Learn more

10-Day Weather Forecast

Advertisements
Track Severe Weather on mobile